Aérodrome :
LOGIN :

S'inscrire | Disclaimer

   EN    FR    IT 

 










Légende :    VFR   VFR Marginal   IFR   IFR Intensif   IFR Très Intensif
Visi : 
Plafond : 
>= 8 km
>= 3000ft
5 à 8 km
1000 à 3000 ft
1500m à 5 km
500 à 1000 ft
800 à 1500m
200 à 500 ft
< 800m
< 200 ft
Symboles :   Orages  Brouillard  Fortes neiges  Fortes précipitations  Vent > 20 kt
SIGMETs :   Divers  Orages  Givrage  Turbulence  Onde Orograph.  Cendres Volcan.







- Altitude de l'aérodrome : 3368 ft


LSGC - Les Eplatures

DERNIER METAR :
  • 210650Z 25007KT 220V300 1000 FG OVC003 08/07 Q1014

METARs EXPIRÉS :
  • 210620Z AUTO 26007KT 230V320 1100 -DZ BKN002 07/07 Q1014
  • 210550Z AUTO 26008KT 220V310 0550 FG VV002 07/07 Q1014
  • 210520Z AUTO 25006KT 200V300 3000 -RA OVC002 07/07 Q1013
  • 210450Z AUTO 24003KT 190V320 3900 -DZ OVC003 07/07 Q1013
  • 210420Z AUTO 25004KT 210V320 5000 OVC002 07/07 Q1013

TAF AMD TAF LSGC
Valide du 21 à 06h jusqu'au 21 à 15h UTC


210608Z 2106/2115 26006KT 0550 FG VV002
BECMG 2107/2109 4900 BR BKN009
BECMG 2112/2115 9999 FEW020
Pas de NOTAMs connus pour ce terrain.



MET'MAP, la Météo Aéronautique d'un coup d'oeil ! - Copyright ORBIFLY Décembre 2007 - Disclaimer

ORBIFLY MET'MAP TEAM :

Programmation & Développement : Alexandra Zaïnal
Conception & Développement : Baudouin d'Aumeries
Co-Programmation & Développement : Marc-Olivier Méhu
Soutien technique & logistique : Manuel Goepfert

Contact : metmap@orbifly.com




SOURCES & CREDITS :

   NOAA